Bonita, California
Current Conditions -  °F | °C
As of 12:53 AM on Saturday 25 Oct 2014 (Local Time) from KSDM Reporting Station
Clear Clear  
Wind Chill: 67°   Ceiling: Unl
Heat Index: 67°   Visibility: 10mi
Dew Point: 59°   Wind: 0mph
Humidity: 76%   Direction: NA
Pressure: 30.02"   Gusts: NA
Location:  32.67°N, 117.01°W
Report Text: KSDM 250753Z AUTO 00000KT 10SM CLR 19/15 A3002 RMK AO2 SLP160 T01940150 403170139 TSNO $
Loading
Personal Weather Stations






























Interactive Weather Map
Tropical Storm Tracking
New forecast layout! Learn more

10-Day Weather Forecast

Advertisements
Track Severe Weather on mobile